createdAt,value
2023-03-22T00:01:08.037Z,171.31
2023-03-22T00:05:08.229Z,169.17
2023-03-22T00:09:08.393Z,173.29
2023-03-22T00:13:08.556Z,174.39
2023-03-22T00:17:08.750Z,173.01
2023-03-22T00:21:08.956Z,173.87
2023-03-22T00:25:09.139Z,179.14
2023-03-22T00:29:09.341Z,172.70
2023-03-22T00:33:09.525Z,173.50
2023-03-22T00:37:09.726Z,176.67
2023-03-22T00:41:09.944Z,175.33
2023-03-22T00:45:10.092Z,176.93
2023-03-22T00:49:10.315Z,173.82
2023-03-22T00:53:10.543Z,180.46
2023-03-22T00:57:10.723Z,178.79
2023-03-22T01:01:10.940Z,177.14
2023-03-22T01:05:11.136Z,178.62
2023-03-22T01:09:11.276Z,179.34
2023-03-22T01:13:11.650Z,178.48
2023-03-22T01:17:11.769Z,175.45
2023-03-22T01:21:11.945Z,177.37
2023-03-22T01:25:12.152Z,179.83
2023-03-22T01:29:12.368Z,179.48
2023-03-22T01:33:12.575Z,180.29
2023-03-22T01:37:12.574Z,182.74
2023-03-22T01:41:12.525Z,181.22
2023-03-22T01:45:12.463Z,181.05
2023-03-22T01:49:12.513Z,184.27
2023-03-22T01:53:12.416Z,181.10
2023-03-22T01:57:12.367Z,179.56
2023-03-22T02:01:12.427Z,182.94
2023-03-22T02:05:12.369Z,181.30
2023-03-22T02:09:12.243Z,183.73
2023-03-22T02:13:12.255Z,182.22
2023-03-22T02:17:12.442Z,185.20
2023-03-22T02:21:12.393Z,188.73
2023-03-22T02:25:12.333Z,186.26
2023-03-22T02:29:12.314Z,184.93
2023-03-22T02:33:12.289Z,183.64
2023-03-22T02:37:12.271Z,186.39
2023-03-22T02:41:12.239Z,182.11
2023-03-22T02:45:12.151Z,184.35
2023-03-22T02:49:12.135Z,180.81
2023-03-22T02:53:12.112Z,185.10
2023-03-22T02:57:12.144Z,186.24
2023-03-22T03:01:12.234Z,182.44
2023-03-22T03:05:12.094Z,182.64
2023-03-22T03:09:12.113Z,184.62
2023-03-22T03:13:12.014Z,188.66
2023-03-22T03:17:11.963Z,186.31
2023-03-22T03:21:11.955Z,187.33
2023-03-22T03:25:11.919Z,186.45
2023-03-22T03:29:11.834Z,183.97
2023-03-22T03:33:11.779Z,188.62
2023-03-22T03:37:11.954Z,187.17
2023-03-22T03:41:11.887Z,185.74
2023-03-22T03:45:11.932Z,184.45
2023-03-22T03:49:11.830Z,187.77
2023-03-22T03:53:11.873Z,184.70
2023-03-22T03:57:11.753Z,190.57
2023-03-22T04:01:11.728Z,189.06
2023-03-22T04:05:11.664Z,189.91
2023-03-22T04:09:11.670Z,190.29
2023-03-22T04:13:11.597Z,190.86
2023-03-22T04:17:11.620Z,188.67
2023-03-22T04:21:11.554Z,187.26
2023-03-22T04:25:11.626Z,189.13
2023-03-22T04:29:11.639Z,187.40
2023-03-22T04:33:11.590Z,188.02
2023-03-22T04:37:11.663Z,187.26
2023-03-22T04:41:11.698Z,183.61
2023-03-22T04:45:11.638Z,189.71
2023-03-22T04:49:11.671Z,185.88
2023-03-22T04:53:11.653Z,187.53
2023-03-22T04:57:11.620Z,186.45
2023-03-22T05:01:11.684Z,188.60
2023-03-22T05:05:11.579Z,180.24
2023-03-22T05:09:11.567Z,177.02
2023-03-22T05:13:11.556Z,168.90
2023-03-22T05:17:11.580Z,154.66
2023-03-22T05:21:11.579Z,150.00
2023-03-22T05:25:11.709Z,140.16
2023-03-22T05:29:11.774Z,130.90
2023-03-22T05:33:11.757Z,125.20
2023-03-22T05:37:11.714Z,120.61
2023-03-22T05:41:11.772Z,119.71
2023-03-22T05:45:11.771Z,122.08
2023-03-22T05:49:12.296Z,122.82
2023-03-22T05:53:11.769Z,122.56
2023-03-22T05:57:11.881Z,133.69
2023-03-22T06:01:12.017Z,195.92
2023-03-22T06:05:12.147Z,249.69
2023-03-22T06:09:17.341Z,249.76
2023-03-22T06:13:13.300Z,262.36
2023-03-22T06:17:12.227Z,245.92
2023-03-22T06:21:12.156Z,250.00
2023-03-22T06:25:12.261Z,216.68
2023-03-22T06:29:12.353Z,151.71
2023-03-22T06:33:12.495Z,123.65
2023-03-22T06:37:12.753Z,108.18
2023-03-22T06:41:12.901Z,99.69
2023-03-22T06:45:12.825Z,95.80
2023-03-22T06:49:12.864Z,96.99
2023-03-22T06:53:12.983Z,97.10
2023-03-22T06:57:12.919Z,98.32
2023-03-22T07:01:13.034Z,98.72
2023-03-22T07:05:13.029Z,98.60
2023-03-22T07:09:13.063Z,98.90
2023-03-22T07:13:13.054Z,100.53
2023-03-22T07:17:19.779Z,104.26
2023-03-22T07:21:13.077Z,105.74
2023-03-22T07:25:13.001Z,104.36
2023-03-22T07:29:12.995Z,103.19
2023-03-22T07:33:12.946Z,101.88
2023-03-22T07:37:13.096Z,102.97
2023-03-22T07:41:12.868Z,105.15
2023-03-22T07:45:12.930Z,105.35
2023-03-22T07:49:12.845Z,109.30
2023-03-22T07:53:12.760Z,111.83
2023-03-22T07:57:12.899Z,114.89
2023-03-22T08:01:13.030Z,110.77
2023-03-22T08:05:13.272Z,113.21
2023-03-22T08:09:13.517Z,112.00
2023-03-22T08:13:13.499Z,113.03
2023-03-22T08:17:13.473Z,114.03
2023-03-22T08:21:13.385Z,109.98
2023-03-22T08:25:13.369Z,113.45
2023-03-22T08:29:13.327Z,114.27
2023-03-22T08:33:13.847Z,113.18
2023-03-22T08:37:13.363Z,111.79
2023-03-22T08:41:13.196Z,119.99
2023-03-22T08:45:13.179Z,122.45
2023-03-22T08:49:13.156Z,114.45
2023-03-22T08:53:13.153Z,118.64
2023-03-22T08:57:13.126Z,113.48
2023-03-22T09:01:13.192Z,116.35
2023-03-22T09:05:13.022Z,108.75
2023-03-22T09:09:12.983Z,109.44
2023-03-22T09:13:12.993Z,103.34
2023-03-22T09:17:12.961Z,104.55
2023-03-22T09:21:12.941Z,103.18
2023-03-22T09:25:13.453Z,99.05
2023-03-22T09:29:12.994Z,99.91
2023-03-22T09:33:12.967Z,99.45
2023-03-22T09:37:12.858Z,96.89
2023-03-22T09:41:12.866Z,89.73
2023-03-22T09:45:12.848Z,82.34
2023-03-22T09:49:12.805Z,81.70
2023-03-22T09:53:12.767Z,75.93
2023-03-22T09:57:12.698Z,67.10
2023-03-22T10:01:12.769Z,0.00
2023-03-22T10:05:12.653Z,31.80
2023-03-22T10:09:12.640Z,20.45
2023-03-22T10:13:12.558Z,25.72
2023-03-22T10:17:12.753Z,25.30
2023-03-22T10:21:12.952Z,35.03
2023-03-22T10:25:13.083Z,29.23
2023-03-22T10:29:13.285Z,44.43
2023-03-22T10:33:13.268Z,47.85
2023-03-22T10:37:13.186Z,49.25
2023-03-22T10:41:13.171Z,53.32
2023-03-22T10:45:13.131Z,83.95
2023-03-22T10:49:13.095Z,105.28
2023-03-22T10:53:13.047Z,121.26
2023-03-22T10:57:12.990Z,138.93
2023-03-22T11:01:13.225Z,141.52
2023-03-22T11:05:13.016Z,133.23
2023-03-22T11:09:13.389Z,123.37
2023-03-22T11:13:12.907Z,118.72
2023-03-22T11:17:12.832Z,114.82
2023-03-22T11:21:12.881Z,106.68
2023-03-22T11:25:12.899Z,94.27
2023-03-22T11:29:12.747Z,100.23
2023-03-22T11:33:12.697Z,97.59
2023-03-22T11:37:15.638Z,94.49
2023-03-22T11:41:13.620Z,98.65
2023-03-22T11:45:12.616Z,100.19
2023-03-22T11:49:12.856Z,95.91
2023-03-22T11:53:13.114Z,95.21
2023-03-22T11:57:13.337Z,87.01
2023-03-22T12:01:13.204Z,82.26
2023-03-22T12:05:13.239Z,87.78
2023-03-22T12:09:13.153Z,119.73
2023-03-22T12:13:13.190Z,127.42
2023-03-22T12:17:13.104Z,98.03
2023-03-22T12:21:13.095Z,96.82
2023-03-22T12:25:13.021Z,83.06
2023-03-22T12:29:12.982Z,81.89
2023-03-22T12:33:12.979Z,49.12
2023-03-22T12:37:12.932Z,38.54
2023-03-22T12:41:13.093Z,60.81
2023-03-22T12:45:13.292Z,108.03
2023-03-22T12:49:13.316Z,137.69
2023-03-22T12:53:13.384Z,147.90
2023-03-22T12:57:13.399Z,166.06
2023-03-22T13:01:13.583Z,177.14
2023-03-22T13:05:13.466Z,166.28
2023-03-22T13:09:13.554Z,192.62
2023-03-22T13:13:13.781Z,185.59
2023-03-22T13:17:13.986Z,174.00
2023-03-22T13:21:14.193Z,184.45
2023-03-22T13:25:14.352Z,175.42
2023-03-22T13:29:14.356Z,153.20
2023-03-22T13:33:14.383Z,181.16
2023-03-22T13:37:14.258Z,146.79
2023-03-22T13:41:14.278Z,123.72
2023-03-22T13:45:14.223Z,119.82
2023-03-22T13:49:14.258Z,119.32
2023-03-22T13:53:14.103Z,113.20
2023-03-22T13:57:14.090Z,122.32
2023-03-22T14:01:14.137Z,147.35
2023-03-22T14:05:14.021Z,148.39
2023-03-22T14:09:14.026Z,155.57
2023-03-22T14:13:13.947Z,163.60
2023-03-22T14:17:13.905Z,150.46
2023-03-22T14:21:13.899Z,118.27
2023-03-22T14:46:04.201Z,25.00
2023-03-22T14:50:04.177Z,0.00
2023-03-22T14:54:04.122Z,0.00
2023-03-22T14:58:04.105Z,19.39
2023-03-22T15:02:04.185Z,0.00
2023-03-22T15:06:04.002Z,86.98
2023-03-22T15:10:03.987Z,130.67
2023-03-22T15:14:03.940Z,95.36
2023-03-22T15:18:03.940Z,90.52
2023-03-22T15:22:03.869Z,25.67
2023-03-22T15:26:03.827Z,109.17
2023-03-22T15:30:03.833Z,139.20
2023-03-22T15:34:03.738Z,163.36
2023-03-22T15:38:03.714Z,203.48
2023-03-22T15:42:03.892Z,258.60
2023-03-22T15:46:04.247Z,249.26
2023-03-22T15:50:04.095Z,249.55
2023-03-22T15:54:04.108Z,245.69
2023-03-22T15:58:04.049Z,183.77
2023-03-22T16:02:04.030Z,203.56
2023-03-22T16:06:03.980Z,233.27
2023-03-22T16:10:03.927Z,222.15
2023-03-22T16:14:03.936Z,232.75
2023-03-22T16:18:03.839Z,214.63
2023-03-22T16:22:03.891Z,194.77
2023-03-22T16:26:03.800Z,184.87
2023-03-22T16:30:03.772Z,189.28
2023-03-22T16:34:03.732Z,203.31
2023-03-22T16:38:03.733Z,213.08
2023-03-22T16:42:03.649Z,223.84
2023-03-22T16:46:03.630Z,227.69
2023-03-22T16:50:03.793Z,221.61
2023-03-22T16:54:03.880Z,208.04
2023-03-22T16:58:04.043Z,230.35
2023-03-22T17:02:04.170Z,250.58
2023-03-22T17:06:04.352Z,247.78
2023-03-22T17:10:04.392Z,229.44
2023-03-22T17:14:04.543Z,198.96
2023-03-22T17:18:04.552Z,217.43
2023-03-22T17:22:04.505Z,175.06
2023-03-22T17:26:04.440Z,183.76
2023-03-22T17:30:04.419Z,233.43
2023-03-22T17:34:04.381Z,239.84
2023-03-22T17:38:04.348Z,229.04
2023-03-22T17:42:04.303Z,232.08
2023-03-22T17:46:48.996Z,249.78
2023-03-22T17:50:05.253Z,251.23
2023-03-22T17:54:33.935Z,247.10
2023-03-22T17:58:27.561Z,253.66
2023-03-22T18:02:05.170Z,253.90
2023-03-22T18:06:04.099Z,245.28
2023-03-22T18:10:04.081Z,247.09
2023-03-22T18:14:18.082Z,241.39
2023-03-22T18:18:05.057Z,226.25
2023-03-22T18:22:03.932Z,218.40
2023-03-22T18:26:04.077Z,220.70
2023-03-22T18:30:03.909Z,216.26
2023-03-22T18:34:04.149Z,208.05
2023-03-22T18:38:04.099Z,239.82
2023-03-22T18:42:16.538Z,284.16
2023-03-22T18:46:16.967Z,288.92
2023-03-22T18:50:04.974Z,290.65
2023-03-22T18:54:03.924Z,256.22
2023-03-22T18:58:03.914Z,249.42
2023-03-22T19:02:11.448Z,243.63
2023-03-22T19:06:04.857Z,239.28
2023-03-22T19:10:03.769Z,232.51
2023-03-22T19:14:38.357Z,225.76
2023-03-22T19:18:04.774Z,222.22
2023-03-22T19:22:03.679Z,219.12
2023-03-22T19:26:03.639Z,225.36
2023-03-22T19:30:04.977Z,226.51
2023-03-22T19:34:06.414Z,228.35
2023-03-22T19:38:03.710Z,230.21
2023-03-22T19:42:06.559Z,231.23
2023-03-22T19:46:03.678Z,233.64
2023-03-22T19:50:03.593Z,235.88
2023-03-22T19:54:24.309Z,234.68
2023-03-22T19:58:04.530Z,235.81
2023-03-22T20:02:03.579Z,235.27
2023-03-22T20:06:03.528Z,235.09
2023-03-22T20:10:03.492Z,235.28
2023-03-22T20:14:03.412Z,237.36
2023-03-22T20:18:03.335Z,236.26
2023-03-22T20:22:03.364Z,235.55
2023-03-22T20:26:04.696Z,239.58
2023-03-22T20:30:03.315Z,239.18
2023-03-22T20:34:03.244Z,239.59
2023-03-22T20:38:03.197Z,241.53
2023-03-22T20:42:03.233Z,240.86
2023-03-22T20:46:03.181Z,242.04
2023-03-22T20:50:03.201Z,241.61
2023-03-22T20:54:03.312Z,243.14
2023-03-22T20:58:03.298Z,241.90
2023-03-22T21:02:03.370Z,241.25
2023-03-22T21:06:03.449Z,241.96
2023-03-22T21:10:03.481Z,241.14
2023-03-22T21:14:03.453Z,240.44
2023-03-22T21:18:03.486Z,240.89
2023-03-22T21:22:05.295Z,241.63
2023-03-22T21:26:03.706Z,240.38
2023-03-22T21:30:03.865Z,239.93
2023-03-22T21:34:03.912Z,240.10
2023-03-22T21:38:04.082Z,238.81
2023-03-22T21:42:04.252Z,240.12
2023-03-22T21:46:04.434Z,239.15
2023-03-22T21:50:04.609Z,238.59
2023-03-22T21:54:04.765Z,239.50
2023-03-22T21:58:04.857Z,237.78
2023-03-22T22:02:05.120Z,237.54
2023-03-22T22:06:05.200Z,238.03
2023-03-22T22:10:05.327Z,237.30
2023-03-22T22:14:05.458Z,237.25
2023-03-22T22:18:05.529Z,237.13
2023-03-22T22:22:05.616Z,237.13
2023-03-22T22:26:05.700Z,235.57
2023-03-22T22:30:05.910Z,235.76
2023-03-22T22:34:05.939Z,235.56
2023-03-22T22:38:06.072Z,234.62
2023-03-22T22:42:06.151Z,234.51
2023-03-22T22:46:06.178Z,234.75
2023-03-22T22:50:06.241Z,234.40
2023-03-22T22:54:06.343Z,233.83
2023-03-22T22:58:06.373Z,233.50
2023-03-22T23:02:06.379Z,233.93
2023-03-22T23:06:06.313Z,232.92
2023-03-22T23:10:06.493Z,233.89
2023-03-22T23:14:06.682Z,232.56
2023-03-22T23:18:10.254Z,234.02
2023-03-22T23:22:06.781Z,232.68
2023-03-22T23:26:06.754Z,232.53
2023-03-22T23:30:06.673Z,230.61
2023-03-22T23:34:06.645Z,231.15
2023-03-22T23:38:06.692Z,229.45
2023-03-22T23:42:07.241Z,230.13
2023-03-22T23:46:06.573Z,229.87
2023-03-22T23:50:06.513Z,228.87
2023-03-22T23:54:06.462Z,228.98
2023-03-22T23:58:06.462Z,229.04
